My Meet Scores
Molly Ronan, Chicago Park Dist - MyMeetScores.com
Top100 | Top Teams | Upcoming Meets | Completed Meets | Latest | Add Scores | Help| Support | Bookmark and Share

Molly Ronan, Chicago Park Dist
Personal Bests
LevelVault BarsBeamFloorAA
39.4509.150 8.8759.55036.175
48.7509.050 9.1509.35036.275
XG9.3259.450 9.4009.70037.525
XP9.3509.350 9.3009.22536.400
Meet Scores
Date Meet Team Session Level Division Vault Bars Beam Floor AA
2020-02-28 MEGA Spring Invite 2020 Chicago Park Dist 9 XP Junior A 9.350 2 9.350 5 9.300 3 8.400 16 36.400 5
2020-02-14 Big Classic Chicago Park Dist 4A XP Junior A 8.900 31T 9.125 34 9.000 21T 8.850 62T 35.875 27T
2020-01-31 Big Chill Chicago Park Dist 3 XP 10-12 8.725 6 8.800 4T 9.100 3T 9.225 6 35.850 4
2019-03-08 Lucky Invite Chicago Park Dist B02 XG Jr A 9.200 2 9.225 6 9.300 5 9.675 1 37.400 1
2019-02-08 IGI Chicago Style 2019 Chicago Park Dist 43 XG 132 State Gold B 9.150 5 9.450 3 9.225 7 9.700 2 37.525 4
2019-01-19 2019 Hang 10.0 Invitational Chicago Park Dist 1 XG 11 Yr Olds 9.325 1 9.225 1 8.850 3 9.425 1 36.825 1
2018-04-06 XCEL State Championships Chicago Park Dist 3B XG Ch A 9.000 5T 9.200 19 9.400 3 9.425 6T 37.025 2
2018-03-09 Lucky Invitational Chicago Park Dist B07 XG Jr A 9.050 6T 9.350 4 9.350 2 9.700 3T 37.450 2
2018-02-23 Kinetic Classic Chicago Park Dist 9 XG Younger 8.750 43T 9.000 38T 9.050 37T 9.425 23T 36.225 37
2018-02-09 IGI Chicago Style Gymnastics Meet Chicago Park Dist 18 XG 613 LaSalle L-XGold A 9.175 3 8.675 11 8.700 18 9.400 4 35.950 8
2017-02-24 Kinetic Classic Chicago Park Dist 5,6 4 All Ages 8.750 63T 9.050 53T 9.125 61T 9.350 17T 36.275 41T
2016-12-16 2016 Aspire Classic Chicago Park Dist 7 4 Younger 8.550 15T 8.250 16 9.150 11 9.350 4 35.300 11
2016-12-02 Ultimate Wish Classic Chicago Park Dist 14 4 Child 7.900 15 8.000 11T 8.100 17 8.850 4 32.850 11
2016-03-04 2016 Illinois Level 3 State Championships Chicago Park Dist 3 Child-F 9.200 19 8.100 24 7.600 29 9.325 7 34.225 21
2016-02-12 IGI Chicago Style Gymnastics Meet Chicago Park Dist 211 3 JrB 9.425 2 8.900 4 8.325 8 9.150 2 35.800 4
2016-01-15 2016 Bravo Classic Chicago Park Dist 7A 3 8+yrs 8.800 21 9.150 10T 8.550 23 9.400 4T 35.900 12
2015-12-18 2015 Aspire Classic Chicago Park Dist 11 3 Middle 9.450 1 8.300 21 8.875 12 9.550 3 36.175 8T
2015-12-04 2015 Ultimate Wish Classic Chicago Park Dist 10B 3 All 9.000 18 8.875 31 8.575 38 9.150 29 35.600 27
2015-03-12 2015 Illinois Level 3 State Championship Chicago Park Dist All 3 Child-B 8.925 22 7.900 26 8.050 26 8.900 16 33.775 25
2015-02-20 Midwest Open 2015 Chicago Park Dist 4A 3 6-7 9.350 2 8.450 11 8.100 15 8.575 11 34.475 12
Get your scores on
a t-shirt, pin, or hoodie

www.lazysuits.com